Time;durP1;ratioP1;P1;durP2;ratioP2;P2;SDS_P1;SDS_P2;PMS_P1;PMS_P2;Temp;Humidity;BMP_temperature;BMP_pressure;BME280_temperature;BME280_humidity;BME280_pressure;Samples;Min_cycle;Max_cycle;Signal;HPM_P1;HPM_P2
2022/03/16 00:02:36;;;;;;;96.87;32.73;;;6.20;1.00;;;;;;4337797;28;655821;-89
2022/03/16 00:05:24;;;;;;;97.80;31.67;;;6.20;1.00;;;;;;4310981;28;656691;-89
2022/03/16 00:08:12;;;;;;;79.37;31.50;;;6.10;1.00;;;;;;4317613;28;657078;-90
2022/03/16 00:11:00;;;;;;;85.15;30.00;;;6.10;1.00;;;;;;4336987;28;657776;-90
2022/03/16 00:13:47;;;;;;;57.67;24.30;;;6.10;1.00;;;;;;4314529;28;656588;-90
2022/03/16 00:16:35;;;;;;;61.07;25.30;;;6.10;1.00;;;;;;4334219;28;656559;-90
2022/03/16 00:19:24;;;;;;;60.67;25.23;;;6.10;1.00;;;;;;4320015;28;656619;-90
2022/03/16 00:22:11;;;;;;;58.97;25.03;;;6.10;1.00;;;;;;4318927;28;656727;-89
2022/03/16 00:24:59;;;;;;;61.57;24.17;;;6.20;1.00;;;;;;4340713;28;656535;-89
2022/03/16 00:27:47;;;;;;;59.67;25.03;;;6.20;1.00;;;;;;4315653;28;657568;-88
2022/03/16 00:30:34;;;;;;;59.13;24.37;;;6.20;1.00;;;;;;4333081;28;656849;-89
2022/03/16 00:33:22;;;;;;;63.20;25.53;;;6.10;1.00;;;;;;4319295;28;656599;-89
2022/03/16 00:36:11;;;;;;;46.37;20.23;;;6.30;1.00;;;;;;4330438;28;657310;-91
2022/03/16 00:38:58;;;;;;;53.13;20.27;;;6.40;1.00;;;;;;4317455;28;656449;-89
2022/03/16 00:41:46;;;;;;;51.37;22.33;;;6.70;1.00;;;;;;4318836;28;657174;-88
2022/03/16 00:44:35;;;;;;;46.33;21.53;;;7.00;1.00;;;;;;4335990;28;657029;-89
2022/03/16 00:47:22;;;;;;;52.67;22.60;;;7.10;1.00;;;;;;4312357;28;656708;-89
2022/03/16 00:50:10;;;;;;;59.13;24.93;;;7.10;1.00;;;;;;4338943;28;656604;-89
2022/03/16 00:52:59;;;;;;;53.17;23.63;;;7.30;1.00;;;;;;4317775;28;658888;-88
2022/03/16 00:55:46;;;;;;;48.83;23.30;;;7.40;1.00;;;;;;4316494;28;657199;-88
2022/03/16 00:58:34;;;;;;;51.77;22.43;;;7.60;1.00;;;;;;4334311;28;656605;-88
2022/03/16 01:01:21;;;;;;;53.40;21.60;;;7.70;1.00;;;;;;4315745;28;656581;-88
2022/03/16 01:04:09;;;;;;;25.07;9.57;;;7.60;1.00;;;;;;4337443;28;657008;-88
2022/03/16 01:06:56;;;;;;;38.03;15.83;;;7.70;1.00;;;;;;4320197;28;655365;-87
2022/03/16 01:09:45;;;;;;;36.87;15.10;;;8.00;1.00;;;;;;4341010;28;657421;-89
2022/03/16 01:12:32;;;;;;;31.23;15.20;;;7.90;1.00;;;;;;4315132;28;657482;-88
2022/03/16 01:15:23;;;;;;;22.67;10.83;;;7.90;1.00;;;;;;4342677;28;656491;-89
2022/03/16 01:18:10;;;;;;;26.73;11.45;;;7.90;1.00;;;;;;4320177;28;656197;-88
2022/03/16 01:20:57;;;;;;;24.63;10.40;;;8.00;1.00;;;;;;4318272;28;656483;-89
2022/03/16 01:23:45;;;;;;;17.97;9.50;;;8.10;1.00;;;;;;4339433;28;656556;-89
2022/03/16 01:26:34;;;;;;;18.67;9.63;;;8.20;1.00;;;;;;4317865;28;655568;-89
2022/03/16 01:29:24;;;;;;;17.73;8.30;;;8.20;1.00;;;;;;4319589;28;655727;-90
2022/03/16 01:32:11;;;;;;;15.90;7.97;;;8.20;1.00;;;;;;4319661;28;655609;-89
2022/03/16 01:34:59;;;;;;;20.57;9.57;;;8.30;1.00;;;;;;4331263;28;655535;-89
2022/03/16 01:37:47;;;;;;;18.47;9.30;;;8.30;1.00;;;;;;4316055;28;655611;-88
2022/03/16 01:40:34;;;;;;;19.08;9.85;;;8.30;1.00;;;;;;4336708;28;656543;-89
2022/03/16 01:43:24;;;;;;;19.87;10.23;;;8.20;1.00;;;;;;4305121;28;655940;-88
2022/03/16 01:46:11;;;;;;;20.40;10.17;;;8.20;1.00;;;;;;4317268;28;656701;-88
2022/03/16 01:48:59;;;;;;;22.83;11.67;;;8.10;1.00;;;;;;4340541;28;657027;-89
2022/03/16 01:51:47;;;;;;;33.50;11.47;;;8.00;1.00;;;;;;4314991;28;657539;-88
2022/03/16 01:54:34;;;;;;;21.27;10.83;;;8.00;1.00;;;;;;4338755;28;657652;-89
2022/03/16 01:57:22;;;;;;;22.50;11.10;;;7.90;1.00;;;;;;4318047;28;656887;-88
2022/03/16 02:00:12;;;;;;;22.47;11.00;;;7.90;1.00;;;;;;4339914;28;656393;-90
2022/03/16 02:03:00;;;;;;;19.90;10.07;;;7.80;1.00;;;;;;4316547;28;656387;-89
2022/03/16 02:05:48;;;;;;;27.13;11.17;;;7.70;1.00;;;;;;4316164;28;657116;-88
2022/03/16 02:08:36;;;;;;;21.07;11.20;;;7.60;1.00;;;;;;4338419;28;656626;-90
2022/03/16 02:11:23;;;;;;;23.93;11.37;;;7.60;1.00;;;;;;4314198;28;656905;-90
2022/03/16 02:14:11;;;;;;;25.00;10.53;;;7.50;1.00;;;;;;4328080;28;656938;-88
2022/03/16 02:17:00;;;;;;;20.10;10.23;;;7.50;1.00;;;;;;4331801;28;656833;-90
2022/03/16 02:19:47;;;;;;;18.23;9.70;;;7.50;1.00;;;;;;4317947;28;657717;-89
2022/03/16 02:22:36;;;;;;;20.13;10.63;;;7.50;1.00;;;;;;4342211;28;656335;-89
2022/03/16 02:25:26;;;;;;;21.20;10.90;;;7.50;1.00;;;;;;4317221;28;657130;-89
2022/03/16 02:28:13;;;;;;;21.30;10.83;;;7.50;1.00;;;;;;4317225;28;656617;-89
2022/03/16 02:31:01;;;;;;;18.13;9.80;;;7.40;1.00;;;;;;4328952;28;656645;-88
2022/03/16 02:33:48;;;;;;;25.77;10.70;;;7.30;1.00;;;;;;4334259;28;655707;-90
2022/03/16 02:36:36;;;;;;;26.23;11.70;;;7.40;1.00;;;;;;4315971;28;656912;-87
2022/03/16 02:39:24;;;;;;;21.37;11.43;;;7.30;1.00;;;;;;4341161;28;657686;-89
2022/03/16 02:42:13;;;;;;;20.50;10.73;;;7.20;1.00;;;;;;4315776;28;656934;-88
2022/03/16 02:45:00;;;;;;;19.97;10.27;;;7.20;1.00;;;;;;4342326;28;656494;-89
2022/03/16 02:47:48;;;;;;;21.40;10.43;;;7.10;1.00;;;;;;4313442;28;657109;-89
2022/03/16 02:50:36;;;;;;;22.83;10.20;;;7.00;1.00;;;;;;4332598;28;656847;-88
2022/03/16 02:53:24;;;;;;;20.47;10.03;;;6.90;1.00;;;;;;4333351;28;657449;-88
2022/03/16 02:56:11;;;;;;;16.33;9.02;;;6.80;1.00;;;;;;4315452;28;656337;-87
2022/03/16 02:59:00;;;;;;;21.87;9.63;;;6.80;1.00;;;;;;4343627;28;656028;-89
2022/03/16 03:01:48;;;;;;;19.20;10.13;;;6.70;1.00;;;;;;4306082;28;656684;-88
2022/03/16 03:04:35;;;;;;;15.50;7.20;;;6.70;1.00;;;;;;4337957;28;656230;-89
2022/03/16 03:07:23;;;;;;;17.40;10.00;;;6.60;1.00;;;;;;4316193;28;656266;-88
2022/03/16 03:10:11;;;;;;;17.90;10.45;;;6.60;1.00;;;;;;4342608;28;656639;-88
2022/03/16 03:12:58;;;;;;;21.00;10.98;;;6.70;1.00;;;;;;4318305;28;657253;-88
2022/03/16 03:15:47;;;;;;;17.83;10.17;;;6.50;1.00;;;;;;4328739;28;656411;-88
2022/03/16 03:18:35;;;;;;;53.63;17.07;;;6.40;1.00;;;;;;4340849;28;656233;-89
2022/03/16 03:21:22;;;;;;;22.07;11.47;;;6.30;1.00;;;;;;4317646;28;656790;-89
2022/03/16 03:24:10;;;;;;;19.80;11.13;;;6.30;1.00;;;;;;4338769;28;656285;-89
2022/03/16 03:26:57;;;;;;;19.07;11.00;;;6.20;1.00;;;;;;4311612;28;656796;-89
2022/03/16 03:29:45;;;;;;;24.90;12.00;;;6.20;1.00;;;;;;4331991;28;656160;-89
2022/03/16 03:32:34;;;;;;;19.40;11.10;;;6.10;1.00;;;;;;4315706;28;657140;-89
2022/03/16 03:35:21;;;;;;;22.87;11.67;;;6.10;1.00;;;;;;4315234;28;656559;-88
2022/03/16 03:38:09;;;;;;;20.10;10.83;;;6.10;14.30;;;;;;4337032;28;656915;-89
2022/03/16 03:40:56;;;;;;;20.80;10.97;;;6.10;12.10;;;;;;4318503;28;657870;-89
2022/03/16 03:43:44;;;;;;;19.60;11.63;;;6.00;71.90;;;;;;4334616;28;657738;-89
2022/03/16 03:46:31;;;;;;;22.00;12.00;;;6.00;99.90;;;;;;4313705;28;657726;-87
2022/03/16 03:49:20;;;;;;;23.40;11.33;;;5.90;99.90;;;;;;4344330;28;658172;-89
2022/03/16 03:52:09;;;;;;;18.07;11.20;;;5.80;99.90;;;;;;4310797;28;658040;-89
2022/03/16 03:54:56;;;;;;;18.30;11.50;;;5.80;99.90;;;;;;4317122;28;657541;-89
2022/03/16 03:57:44;;;;;;;21.33;11.47;;;5.70;99.90;;;;;;4337922;28;658231;-89
2022/03/16 04:00:31;;;;;;;24.53;12.30;;;5.70;99.90;;;;;;4315395;28;658046;-88
2022/03/16 04:03:19;;;;;;;24.77;12.60;;;5.70;99.90;;;;;;4334279;28;658132;-88
2022/03/16 04:06:08;;;;;;;26.40;12.13;;;5.70;1.00;;;;;;4309819;28;657498;-88
2022/03/16 04:08:56;;;;;;;24.13;12.20;;;5.70;1.00;;;;;;4321353;28;656289;-87
2022/03/16 04:11:43;;;;;;;27.67;13.30;;;5.60;1.00;;;;;;4336714;28;657428;-88
2022/03/16 04:14:31;;;;;;;23.37;12.53;;;5.60;1.00;;;;;;4318748;28;656566;-87
2022/03/16 04:17:18;;;;;;;21.20;10.87;;;5.60;1.00;;;;;;4324882;28;657602;-88
2022/03/16 04:20:07;;;;;;;19.00;10.70;;;5.60;1.00;;;;;;4317621;28;656466;-87
2022/03/16 04:22:56;;;;;;;25.63;12.33;;;5.50;1.00;;;;;;4339240;28;656283;-88
2022/03/16 04:25:44;;;;;;;23.47;11.93;;;5.50;1.00;;;;;;4315210;28;657052;-89
2022/03/16 04:28:31;;;;;;;26.53;11.43;;;5.40;1.00;;;;;;4317258;28;656386;-88
2022/03/16 04:31:19;;;;;;;20.40;11.73;;;5.40;1.00;;;;;;4336989;28;656961;-89
2022/03/16 04:34:06;;;;;;;24.73;12.43;;;5.40;1.00;;;;;;4315020;28;657089;-87
2022/03/16 04:36:54;;;;;;;27.17;13.23;;;5.40;1.00;;;;;;4331118;28;657421;-89
2022/03/16 04:39:42;;;;;;;23.13;11.88;;;5.40;37.70;;;;;;4317242;28;657250;-87
2022/03/16 04:42:30;;;;;;;25.53;12.90;;;5.40;7.00;;;;;;4335047;28;657166;-89
2022/03/16 04:45:17;;;;;;;24.87;12.27;;;5.40;70.70;;;;;;4314510;28;656628;-89
2022/03/16 04:48:07;;;;;;;21.43;11.30;;;5.40;1.00;;;;;;4338568;28;657813;-89
2022/03/16 04:50:55;;;;;;;21.27;11.90;;;5.30;1.00;;;;;;4312861;28;656781;-89
2022/03/16 04:53:42;;;;;;;22.73;12.17;;;5.30;3.00;;;;;;4317280;28;656474;-89
2022/03/16 04:56:31;;;;;;;22.60;11.90;;;5.20;87.70;;;;;;4336455;28;657284;-89
2022/03/16 04:59:19;;;;;;;24.87;12.83;;;5.20;99.90;;;;;;4313171;28;657742;-89
2022/03/16 05:02:06;;;;;;;20.70;11.80;;;5.20;99.90;;;;;;4312972;28;657839;-89
2022/03/16 05:04:54;;;;;;;27.30;13.10;;;5.20;68.10;;;;;;4335944;28;658255;-88
2022/03/16 05:07:41;;;;;;;26.77;13.03;;;5.20;99.90;;;;;;4313199;28;657870;-88
2022/03/16 05:10:29;;;;;;;24.20;12.97;;;5.20;99.90;;;;;;4341427;28;657837;-89
2022/03/16 05:13:18;;;;;;;30.17;13.67;;;5.20;99.90;;;;;;4321053;28;657496;-88
2022/03/16 05:16:06;;;;;;;24.58;13.68;;;5.20;99.90;;;;;;4330809;28;657475;-89
2022/03/16 05:18:53;;;;;;;25.43;13.00;;;5.20;99.90;;;;;;4322937;28;658075;-90
2022/03/16 05:21:41;;;;;;;22.43;12.20;;;5.30;99.90;;;;;;4311366;28;658009;-88
2022/03/16 05:24:29;;;;;;;26.33;11.43;;;5.20;99.90;;;;;;4327482;28;658147;-88
2022/03/16 05:27:19;;;;;;;25.93;13.40;;;5.20;99.90;;;;;;4307974;28;658132;-88
2022/03/16 05:30:09;;;;;;;25.27;12.03;;;5.20;99.90;;;;;;4309598;28;657836;-88
2022/03/16 05:33:00;;;;;;;25.37;13.17;;;5.30;99.90;;;;;;4317100;28;657945;-89
2022/03/16 05:35:47;;;;;;;23.93;12.93;;;5.30;99.90;;;;;;4316816;28;657774;-89
2022/03/16 05:38:35;;;;;;;30.83;14.90;;;5.30;99.90;;;;;;4333256;28;657207;-88
2022/03/16 05:41:22;;;;;;;22.23;12.83;;;5.40;99.90;;;;;;4313651;28;657731;-88
2022/03/16 05:44:10;;;;;;;31.43;13.93;;;5.40;99.90;;;;;;4337103;28;657780;-89
2022/03/16 05:46:59;;;;;;;26.73;14.27;;;5.40;99.90;;;;;;4313746;28;659179;-89
2022/03/16 05:49:46;;;;;;;31.90;14.20;;;5.50;99.90;;;;;;4311591;28;657463;-88
2022/03/16 05:52:34;;;;;;;28.20;14.67;;;5.50;79.30;;;;;;4336793;28;658059;-89
2022/03/16 05:55:21;;;;;;;24.90;14.67;;;5.60;7.50;;;;;;4312840;28;658013;-88
2022/03/16 05:58:09;;;;;;;26.53;14.03;;;5.70;1.00;;;;;;4337947;28;657081;-89
2022/03/16 06:00:57;;;;;;;27.33;15.30;;;5.80;1.00;;;;;;4315365;28;656287;-88
2022/03/16 06:03:46;;;;;;;26.90;14.90;;;5.80;1.00;;;;;;4338275;28;656868;-88
2022/03/16 06:06:33;;;;;;;30.37;15.13;;;5.90;1.00;;;;;;4314411;28;656311;-88
2022/03/16 06:09:21;;;;;;;27.53;15.20;;;5.90;1.00;;;;;;4326403;28;656358;-88
2022/03/16 06:12:10;;;;;;;28.13;15.33;;;6.00;1.00;;;;;;4333518;28;657398;-89
2022/03/16 06:14:57;;;;;;;30.97;14.67;;;6.00;1.00;;;;;;4314286;28;656904;-89
2022/03/16 06:17:45;;;;;;;25.43;14.43;;;6.10;1.00;;;;;;4335021;28;657721;-87
2022/03/16 06:20:35;;;;;;;29.67;15.73;;;6.20;1.00;;;;;;4309123;28;656241;-89
2022/03/16 06:23:22;;;;;;;27.00;15.05;;;6.30;1.00;;;;;;4305772;28;656649;-89
2022/03/16 06:26:10;;;;;;;32.27;16.33;;;6.30;1.00;;;;;;4342689;28;656008;-90
2022/03/16 06:28:57;;;;;;;30.83;15.70;;;6.40;99.90;;;;;;4313894;28;656775;-91
2022/03/16 06:31:45;;;;;;;33.63;15.60;;;6.50;99.90;;;;;;4334632;28;657909;-90
2022/03/16 06:34:32;;;;;;;28.80;15.97;;;6.60;99.90;;;;;;4311683;28;657403;-90
2022/03/16 06:37:32;;;;;;;31.27;16.30;;;6.70;99.90;;;;;;4345544;28;658217;-90
2022/03/16 06:40:19;;;;;;;36.07;18.03;;;6.80;99.90;;;;;;4319287;28;657556;-90
2022/03/16 06:43:07;;;;;;;33.25;18.30;;;6.90;99.90;;;;;;4312370;28;658195;-90
2022/03/16 06:45:54;;;;;;;37.83;19.07;;;7.00;99.90;;;;;;4328542;28;657769;-91
2022/03/16 06:48:42;;;;;;;36.67;18.87;;;7.00;99.90;;;;;;4318896;28;657536;-90
2022/03/16 06:51:29;;;;;;;40.43;19.37;;;7.10;99.90;;;;;;4344665;28;657666;-89
2022/03/16 06:54:18;;;;;;;41.37;18.90;;;7.20;77.40;;;;;;4315789;28;657808;-94
2022/03/16 06:57:06;;;;;;;40.97;18.97;;;7.30;1.00;;;;;;4302917;28;657640;-91
2022/03/16 06:59:54;;;;;;;37.90;18.83;;;7.30;1.00;;;;;;4337731;28;656698;-93
2022/03/16 07:02:58;;;;;;;41.40;19.63;;;7.30;1.00;;;;;;4317630;28;656658;-92
2022/03/16 07:05:46;;;;;;;38.57;19.73;;;7.30;1.00;;;;;;4315406;28;657192;-92
2022/03/16 07:08:33;;;;;;;40.63;20.00;;;7.20;1.00;;;;;;4320756;28;656889;-92
2022/03/16 07:11:24;;;;;;;42.40;18.90;;;7.20;1.00;;;;;;4330341;28;656665;-94
2022/03/16 07:17:17;;;;;;;41.47;20.03;;;7.00;1.00;;;;;;4312297;28;656772;-91
2022/03/16 07:20:06;;;;;;;40.50;19.57;;;7.10;1.00;;;;;;4337934;28;656617;-90
2022/03/16 07:23:04;;;;;;;46.27;21.00;;;7.20;1.00;;;;;;4315346;28;657046;-89
2022/03/16 07:25:52;;;;;;;44.90;21.17;;;7.10;1.00;;;;;;4304438;28;656444;-90
2022/03/16 07:28:41;;;;;;;40.83;21.90;;;7.20;1.00;;;;;;4341746;28;656307;-89
2022/03/16 07:31:29;;;;;;;43.40;22.27;;;7.10;1.70;;;;;;4314903;28;656971;-89
2022/03/16 07:34:17;;;;;;;42.40;21.33;;;7.20;24.10;;;;;;4311345;28;657085;-90
2022/03/16 07:37:05;;;;;;;47.88;21.75;;;7.30;22.50;;;;;;4338262;28;657774;-90
2022/03/16 07:39:53;;;;;;;42.67;20.87;;;7.40;11.20;;;;;;4318440;28;657908;-90
2022/03/16 07:42:44;;;;;;;44.10;19.17;;;7.50;8.20;;;;;;4336511;28;657156;-90
2022/03/16 07:45:34;;;;;;;47.90;20.97;;;7.50;1.00;;;;;;4313091;28;656731;-90
2022/03/16 07:48:21;;;;;;;45.00;20.30;;;7.60;1.00;;;;;;4315386;28;657097;-90
2022/03/16 07:51:09;;;;;;;46.70;20.50;;;7.60;1.00;;;;;;4336087;28;658170;-88
2022/03/16 07:53:56;;;;;;;43.73;20.53;;;7.60;1.00;;;;;;4317311;28;656270;-88
2022/03/16 07:56:45;;;;;;;45.70;21.30;;;7.70;1.00;;;;;;4334395;28;656801;-89
2022/03/16 07:59:32;;;;;;;41.23;20.20;;;8.00;1.00;;;;;;4311646;28;656405;-88
2022/03/16 08:02:22;;;;;;;36.93;15.97;;;8.00;1.00;;;;;;4338510;28;656762;-88
2022/03/16 08:05:10;;;;;;;54.17;24.17;;;8.10;1.00;;;;;;4320236;28;656476;-88
2022/03/16 08:07:57;;;;;;;52.00;24.07;;;8.30;1.00;;;;;;4319995;28;656440;-88
2022/03/16 08:10:45;;;;;;;52.20;23.57;;;8.20;1.00;;;;;;4340512;28;656616;-88
2022/03/16 08:13:33;;;;;;;50.17;23.40;;;8.40;1.00;;;;;;4313370;28;656274;-88
2022/03/16 08:16:20;;;;;;;48.03;24.43;;;8.40;1.00;;;;;;4334979;28;656451;-88
2022/03/16 08:19:09;;;;;;;52.57;24.57;;;8.50;1.00;;;;;;4314352;28;656463;-89
2022/03/16 08:21:57;;;;;;;50.07;24.77;;;8.70;1.00;;;;;;4316895;28;656789;-88
2022/03/16 08:24:45;;;;;;;45.53;24.53;;;8.90;1.00;;;;;;4340624;28;656449;-88
2022/03/16 08:27:34;;;;;;;49.50;24.47;;;8.90;1.00;;;;;;4311952;28;656301;-88
2022/03/16 08:30:21;;;;;;;53.13;24.70;;;8.90;1.00;;;;;;4312142;28;656756;-88
2022/03/16 08:33:09;;;;;;;53.77;24.93;;;8.80;1.00;;;;;;4330804;28;657067;-89
2022/03/16 08:36:01;;;;;;;51.23;24.13;;;8.90;1.00;;;;;;4321164;28;656391;-89
2022/03/16 08:38:49;;;;;;;51.17;24.43;;;8.80;1.00;;;;;;4308664;28;656755;-89
2022/03/16 08:41:36;;;;;;;46.63;23.43;;;8.80;1.00;;;;;;4313686;28;656960;-88
2022/03/16 08:44:24;;;;;;;55.23;25.20;;;8.90;1.00;;;;;;4333609;28;657227;-89
2022/03/16 08:47:16;;;;;;;60.73;25.47;;;9.00;1.00;;;;;;4311791;28;656501;-88
2022/03/16 08:50:04;;;;;;;55.03;26.07;;;9.40;1.00;;;;;;4315579;28;657275;-88
2022/03/16 08:52:53;;;;;;;57.43;25.47;;;9.70;1.00;;;;;;4310779;28;656520;-88
2022/03/16 08:55:40;;;;;;;56.37;25.20;;;10.10;1.00;;;;;;4339592;28;656102;-89
2022/03/16 08:58:28;;;;;;;49.07;24.77;;;10.50;1.00;;;;;;4313573;28;657960;-89
2022/03/16 09:01:15;;;;;;;47.07;25.03;;;11.00;1.00;;;;;;4332440;28;657417;-89
2022/03/16 09:04:03;;;;;;;51.60;25.07;;;11.10;1.00;;;;;;4303487;28;658405;-88
2022/03/16 09:06:51;;;;;;;47.20;23.27;;;11.30;1.00;;;;;;4325803;28;657711;-89
2022/03/16 09:09:40;;;;;;;47.23;23.53;;;11.40;1.00;;;;;;4332733;28;658315;-88
2022/03/16 09:12:28;;;;;;;50.50;24.17;;;11.70;1.00;;;;;;4319498;28;657388;-89
2022/03/16 09:15:15;;;;;;;45.07;23.77;;;12.00;1.00;;;;;;4333585;28;657231;-89
2022/03/16 09:18:03;;;;;;;44.37;21.63;;;12.20;1.00;;;;;;4316947;28;658729;-89
2022/03/16 09:20:51;;;;;;;42.50;21.50;;;12.60;1.00;;;;;;4326987;28;657301;-88
2022/03/16 09:23:39;;;;;;;38.50;18.47;;;13.10;1.00;;;;;;4342319;28;658810;-89
2022/03/16 09:26:28;;;;;;;37.30;20.00;;;13.20;1.00;;;;;;4321489;28;657451;-89
2022/03/16 09:29:18;;;;;;;38.67;19.50;;;13.10;1.00;;;;;;4313165;28;658273;-89
2022/03/16 09:32:07;;;;;;;35.20;18.63;;;12.80;1.00;;;;;;4322190;28;657719;-89
2022/03/16 09:34:54;;;;;;;37.57;20.10;;;12.50;1.00;;;;;;4321302;28;657506;-89
2022/03/16 09:37:42;;;;;;;36.73;20.87;;;12.30;1.00;;;;;;4314516;28;657830;-89
2022/03/16 09:40:30;;;;;;;37.83;19.83;;;12.40;1.00;;;;;;4341647;28;657560;-88
2022/03/16 09:43:19;;;;;;;37.33;20.33;;;12.50;1.00;;;;;;4319374;28;657749;-88
2022/03/16 09:46:11;;;;;;;34.53;19.63;;;12.60;1.00;;;;;;4317953;28;657457;-89
2022/03/16 09:48:59;;;;;;;34.90;19.07;;;12.50;1.00;;;;;;4318019;28;658391;-89
2022/03/16 09:51:46;;;;;;;37.77;20.33;;;12.70;1.00;;;;;;4321804;28;658067;-89
2022/03/16 09:54:34;;;;;;;41.47;20.57;;;12.50;1.00;;;;;;4338478;28;657997;-89
2022/03/16 09:57:21;;;;;;;43.43;21.10;;;12.80;1.00;;;;;;4314327;28;658246;-88
2022/03/16 10:00:13;;;;;;;34.93;20.57;;;13.30;1.00;;;;;;4340176;28;658115;-89
2022/03/16 10:03:02;;;;;;;43.80;23.27;;;13.70;1.00;;;;;;4319049;28;657604;-89
2022/03/16 10:05:50;;;;;;;36.33;18.90;;;14.00;1.00;;;;;;4321939;28;657421;-90
2022/03/16 10:08:39;;;;;;;36.20;19.07;;;14.40;1.00;;;;;;4309499;28;658144;-89
2022/03/16 10:14:32;;;;;;;30.33;17.87;;;15.30;1.00;;;;;;4317719;28;657445;-89
2022/03/16 10:20:30;;;;;;;38.80;19.57;;;15.40;1.00;;;;;;4313854;28;658270;-89
2022/03/16 10:23:21;;;;;;;35.43;20.47;;;15.50;1.00;;;;;;4327010;28;657418;-89
2022/03/16 10:26:09;;;;;;;34.23;19.17;;;15.60;1.00;;;;;;4314505;28;657824;-90
2022/03/16 10:28:59;;;;;;;34.40;18.37;;;15.60;1.00;;;;;;4315852;28;657689;-89
2022/03/16 10:32:01;;;;;;;31.90;18.20;;;15.40;1.00;;;;;;4321681;28;657569;-89
2022/03/16 10:34:51;;;;;;;37.13;21.27;;;15.70;1.00;;;;;;4315151;28;658861;-88
2022/03/16 10:37:39;;;;;;;41.00;20.20;;;15.50;1.00;;;;;;4311859;28;658237;-89
2022/03/16 10:40:27;;;;;;;35.13;19.90;;;15.50;1.00;;;;;;4316443;28;657263;-89
2022/03/16 10:46:38;;;;;;;37.93;21.07;;;15.70;1.00;;;;;;4316938;28;657840;-89
2022/03/16 10:49:26;;;;;;;38.70;21.17;;;15.80;1.00;;;;;;4316985;28;657996;-89
2022/03/16 10:52:18;;;;;;;41.10;21.93;;;15.90;1.00;;;;;;4313442;28;658195;-89
2022/03/16 10:55:06;;;;;;;42.27;22.53;;;16.00;1.00;;;;;;4318708;28;657999;-89
2022/03/16 10:57:54;;;;;;;39.60;23.47;;;16.20;1.00;;;;;;4318374;28;657631;-89
2022/03/16 11:00:42;;;;;;;38.63;21.33;;;16.40;1.00;;;;;;4306237;28;657653;-88
2022/03/16 11:03:31;;;;;;;40.97;22.07;;;16.20;1.00;;;;;;4331845;28;657244;-89
2022/03/16 11:06:22;;;;;;;38.20;21.77;;;16.30;1.00;;;;;;4322576;28;657853;-89
2022/03/16 11:09:12;;;;;;;41.90;22.77;;;16.30;1.00;;;;;;4314918;28;657928;-88
2022/03/16 11:15:07;;;;;;;43.60;24.47;;;16.70;1.00;;;;;;4310287;28;658349;-89
2022/03/16 11:17:55;;;;;;;43.67;22.90;;;16.60;1.00;;;;;;4317771;28;657866;-90
2022/03/16 11:20:42;;;;;;;42.67;22.60;;;15.90;1.00;;;;;;4311197;28;657565;-88
2022/03/16 11:26:49;;;;;;;41.50;23.67;;;16.20;1.00;;;;;;4325605;28;657374;-88
2022/03/16 11:29:41;;;;;;;39.90;21.83;;;16.90;1.00;;;;;;4316846;28;657646;-89
2022/03/16 11:32:34;;;;;;;50.60;28.70;;;17.30;1.00;;;;;;4316771;28;657989;-89
2022/03/16 11:35:23;;;;;;;41.60;22.87;;;17.70;1.00;;;;;;4313976;28;658330;-89
2022/03/16 11:38:13;;;;;;;35.00;22.10;;;17.90;1.00;;;;;;4327961;28;657881;-89
2022/03/16 11:41:00;;;;;;;40.10;22.20;;;17.80;1.00;;;;;;4347886;28;657259;-89
2022/03/16 11:43:52;;;;;;;41.07;22.57;;;18.10;1.00;;;;;;4315898;28;657954;-89
2022/03/16 11:46:40;;;;;;;42.37;20.70;;;18.60;1.00;;;;;;4318382;28;658088;-89
2022/03/16 11:49:29;;;;;;;40.00;21.13;;;18.90;1.00;;;;;;4316427;28;657509;-89
2022/03/16 11:52:17;;;;;;;35.57;19.83;;;18.80;1.00;;;;;;4316542;28;658042;-90
2022/03/16 11:55:04;;;;;;;32.20;19.03;;;19.10;1.00;;;;;;4343826;28;658409;-91
2022/03/16 11:57:54;;;;;;;37.47;19.70;;;19.00;1.00;;;;;;4310577;28;657396;-92
2022/03/16 12:00:44;;;;;;;31.97;18.17;;;19.30;1.00;;;;;;4312736;28;658070;-91
2022/03/16 12:03:43;;;;;;;33.70;17.33;;;19.60;1.00;;;;;;4315341;28;657978;-90
2022/03/16 12:06:32;;;;;;;30.30;17.50;;;20.00;1.00;;;;;;4321348;28;657567;-92
2022/03/16 12:09:21;;;;;;;30.37;16.70;;;20.10;1.00;;;;;;4319016;28;658154;-90
2022/03/16 12:15:22;;;;;;;30.17;17.70;;;20.10;1.00;;;;;;4312814;28;657650;-90
2022/03/16 12:18:26;;;;;;;30.33;17.07;;;20.10;1.00;;;;;;4316803;28;657584;-89
2022/03/16 12:21:14;;;;;;;27.23;16.17;;;19.60;1.00;;;;;;4318744;28;657898;-89
2022/03/16 12:30:22;;;;;;;29.50;17.17;;;18.30;1.00;;;;;;4279482;29;657777;-88
2022/03/16 12:33:11;;;;;;;31.50;17.93;;;18.10;1.00;;;;;;4303825;29;657651;-89
2022/03/16 12:36:02;;;;;;;32.90;17.03;;;18.20;1.00;;;;;;4275818;29;657999;-89
2022/03/16 12:38:52;;;;;;;35.03;17.53;;;18.60;1.00;;;;;;4281227;29;657509;-89
2022/03/16 12:44:45;;;;;;;30.60;18.20;;;19.10;1.00;;;;;;4278791;29;657867;-89
2022/03/16 12:47:38;;;;;;;35.17;19.07;;;19.30;1.00;;;;;;4279619;29;657886;-89
2022/03/16 12:50:27;;;;;;;34.10;19.37;;;19.30;1.00;;;;;;4277219;29;657620;-89
2022/03/16 12:53:31;;;;;;;39.03;20.90;;;19.40;1.00;;;;;;4276855;29;657788;-88
2022/03/16 12:56:19;;;;;;;37.50;21.93;;;18.90;1.00;;;;;;4276832;29;658159;-90
2022/03/16 12:59:06;;;;;;;34.97;19.23;;;19.00;1.00;;;;;;4282679;29;657882;-89
2022/03/16 13:01:58;;;;;;;78.80;34.70;;;18.40;1.00;;;;;;4307197;28;658436;-89
2022/03/16 13:04:51;;;;;;;42.30;25.93;;;18.30;1.00;;;;;;4261263;29;658191;-89
2022/03/16 13:07:39;;;;;;;33.67;19.73;;;17.70;1.00;;;;;;4276016;29;657646;-89
2022/03/16 13:10:29;;;;;;;32.30;19.80;;;17.40;1.00;;;;;;4302295;28;657558;-90
2022/03/16 13:13:19;;;;;;;113.77;34.30;;;16.90;1.00;;;;;;4318137;28;658106;-89
2022/03/16 13:16:07;;;;;;;129.80;35.80;;;16.90;1.00;;;;;;4316359;28;658647;-90
2022/03/16 13:18:55;;;;;;;57.37;23.70;;;16.90;1.00;;;;;;4337331;28;658309;-89
2022/03/16 13:21:43;;;;;;;100.30;34.47;;;16.90;1.00;;;;;;4312077;28;657974;-89
2022/03/16 13:24:34;;;;;;;75.57;34.67;;;16.80;1.00;;;;;;4330003;28;658677;-88
2022/03/16 13:27:24;;;;;;;36.43;20.43;;;16.70;1.00;;;;;;4308806;28;658070;-88
2022/03/16 13:30:18;;;;;;;38.40;19.90;;;16.50;1.00;;;;;;4309466;28;657679;-88
2022/03/16 13:33:15;;;;;;;34.53;18.13;;;16.40;1.00;;;;;;4293839;28;657814;-88
2022/03/16 13:36:12;;;;;;;35.57;20.27;;;16.70;1.00;;;;;;4310772;28;657571;-89
2022/03/16 13:39:00;;;;;;;35.07;20.43;;;17.40;1.00;;;;;;4312108;28;657689;-88
2022/03/16 13:42:07;;;;;;;39.47;21.27;;;17.70;1.00;;;;;;4314630;28;658121;-88
2022/03/16 13:45:13;;;;;;;35.53;20.20;;;18.10;1.00;;;;;;4315321;28;657188;-89
2022/03/16 13:48:08;;;;;;;34.17;20.17;;;18.90;1.00;;;;;;4307808;28;657997;-88
2022/03/16 13:51:01;;;;;;;35.13;20.23;;;18.90;1.00;;;;;;4312557;28;657842;-89
2022/03/16 13:53:49;;;;;;;36.63;21.73;;;19.30;1.00;;;;;;4315218;28;657921;-90
2022/03/16 13:56:38;;;;;;;36.70;21.60;;;19.70;1.00;;;;;;4316788;28;657683;-88
2022/03/16 13:59:29;;;;;;;35.47;21.73;;;20.00;1.00;;;;;;4333390;28;658475;-89
2022/03/16 14:02:21;;;;;;;38.83;22.67;;;20.60;1.00;;;;;;4313016;28;658055;-89
2022/03/16 14:05:15;;;;;;;40.33;23.47;;;20.70;1.00;;;;;;4311922;28;657838;-89
2022/03/16 14:08:03;;;;;;;39.57;22.40;;;21.20;1.00;;;;;;4307414;28;658101;-90
2022/03/16 14:10:51;;;;;;;39.07;23.30;;;21.70;1.00;;;;;;4338756;28;657728;-90
2022/03/16 14:13:43;;;;;;;45.17;23.93;;;21.60;1.00;;;;;;4312144;28;657645;-90
2022/03/16 14:16:34;;;;;;;38.57;24.47;;;21.50;1.00;;;;;;4303166;28;657559;-89
2022/03/16 14:19:30;;;;;;;41.80;24.57;;;21.70;1.00;;;;;;4520078;28;657927;-90
2022/03/16 14:22:18;;;;;;;42.38;23.90;;;21.90;1.00;;;;;;4313327;28;657488;-90
2022/03/16 14:25:17;;;;;;;44.40;25.37;;;22.00;1.00;;;;;;4313438;28;657546;-89
2022/03/16 14:28:06;;;;;;;44.35;23.75;;;22.20;1.00;;;;;;4310592;28;657548;-89
2022/03/16 14:30:54;;;;;;;41.03;22.13;;;22.70;1.00;;;;;;4314742;28;658106;-88
2022/03/16 14:33:41;;;;;;;60.37;26.27;;;22.50;1.00;;;;;;4314366;28;657684;-89
2022/03/16 14:36:32;;;;;;;109.97;34.10;;;22.90;1.00;;;;;;4333909;28;657683;-88
2022/03/16 14:39:19;;;;;;;50.30;24.27;;;23.30;1.00;;;;;;4310843;28;659031;-88
2022/03/16 14:42:07;;;;;;;62.53;26.53;;;23.50;1.00;;;;;;4310156;28;657829;-89
2022/03/16 14:44:55;;;;;;;85.83;37.63;;;23.30;1.00;;;;;;4338531;28;658041;-88
2022/03/16 14:47:43;;;;;;;44.77;24.87;;;23.10;1.00;;;;;;4313343;28;658411;-88
2022/03/16 14:50:31;;;;;;;34.30;22.70;;;23.00;1.00;;;;;;4322697;28;658974;-89
2022/03/16 14:53:22;;;;;;;41.50;23.83;;;23.60;1.00;;;;;;4329805;28;658177;-89